createdAt,value
2023-07-28T00:01:10.169Z,3.65
2023-07-28T00:03:39.610Z,3.28
2023-07-28T00:06:09.097Z,2.45
2023-07-28T00:08:40.932Z,3.55
2023-07-28T00:11:15.153Z,2.47
2023-07-28T00:13:45.541Z,2.50
2023-07-28T00:16:15.785Z,3.42
2023-07-28T00:18:45.333Z,3.45
2023-07-28T00:21:14.846Z,4.32
2023-07-28T00:23:44.360Z,2.83
2023-07-28T00:26:13.837Z,2.42
2023-07-28T00:28:43.714Z,3.00
2023-07-28T00:31:13.228Z,2.35
2023-07-28T00:33:43.402Z,3.05
2023-07-28T00:36:12.913Z,5.70
2023-07-28T00:38:42.378Z,2.22
2023-07-28T00:41:11.775Z,2.63
2023-07-28T00:43:41.319Z,3.50
2023-07-28T00:46:11.012Z,4.05
2023-07-28T00:48:40.811Z,4.07
2023-07-28T00:51:11.048Z,3.05
2023-07-28T00:53:40.858Z,4.45
2023-07-28T00:56:11.361Z,3.03
2023-07-28T00:58:40.919Z,6.95
2023-07-28T01:01:10.596Z,4.97
2023-07-28T01:03:40.188Z,3.78
2023-07-28T01:06:22.569Z,4.88
2023-07-28T01:09:05.428Z,4.88
2023-07-28T01:11:35.152Z,4.68
2023-07-28T01:14:05.800Z,5.00
2023-07-28T01:16:35.695Z,4.18
2023-07-28T01:19:05.496Z,5.22
2023-07-28T01:21:35.484Z,9.88
2023-07-28T01:24:10.516Z,5.03
2023-07-28T01:26:41.143Z,5.15
2023-07-28T01:29:11.729Z,7.28
2023-07-28T01:31:41.610Z,5.13
2023-07-28T01:34:11.182Z,6.72
2023-07-28T01:36:40.753Z,6.50
2023-07-28T01:39:10.425Z,6.85
2023-07-28T01:41:44.735Z,5.60
2023-07-28T01:44:14.510Z,5.43
2023-07-28T01:46:43.935Z,6.03
2023-07-28T01:49:13.904Z,8.02
2023-07-28T01:51:43.429Z,6.85
2023-07-28T01:54:12.864Z,7.63
2023-07-28T01:56:42.368Z,7.68
2023-07-28T01:59:11.927Z,8.57
2023-07-28T02:01:41.513Z,8.18
2023-07-28T02:04:11.049Z,9.30
2023-07-28T02:06:38.088Z,7.72
2023-07-28T02:09:08.145Z,7.93
2023-07-28T02:11:37.644Z,7.00
2023-07-28T02:14:07.128Z,8.55
2023-07-28T02:16:36.950Z,8.55
2023-07-28T02:19:06.637Z,8.00
2023-07-28T02:21:36.210Z,8.48
2023-07-28T02:24:05.692Z,9.20
2023-07-28T02:26:35.329Z,10.05
2023-07-28T02:29:05.029Z,8.35
2023-07-28T02:31:34.840Z,10.27
2023-07-28T02:34:04.285Z,8.95
2023-07-28T02:36:34.048Z,10.30
2023-07-28T02:39:03.760Z,9.68
2023-07-28T02:41:33.290Z,8.77
2023-07-28T02:44:02.759Z,7.45
2023-07-28T02:46:32.237Z,8.25
2023-07-28T02:49:03.853Z,8.55
2023-07-28T02:51:37.178Z,8.63
2023-07-28T02:54:07.466Z,8.38
2023-07-28T02:56:38.836Z,8.05
2023-07-28T02:59:13.309Z,9.13
2023-07-28T03:01:42.933Z,9.10
2023-07-28T03:04:12.869Z,9.40
2023-07-28T03:07:02.301Z,9.13
2023-07-28T03:09:31.922Z,8.80
2023-07-28T03:12:07.142Z,8.05
2023-07-28T03:14:36.644Z,7.55
2023-07-28T03:17:06.460Z,9.32
2023-07-28T03:19:35.981Z,8.27
2023-07-28T03:22:05.569Z,8.13
2023-07-28T03:24:34.981Z,8.88
2023-07-28T03:27:04.828Z,11.02
2023-07-28T03:29:34.419Z,7.68
2023-07-28T03:32:04.138Z,9.68
2023-07-28T03:34:33.736Z,8.60
2023-07-28T03:37:06.081Z,9.48
2023-07-28T03:39:36.430Z,10.15
2023-07-28T03:42:06.317Z,8.70
2023-07-28T03:44:39.138Z,11.52
2023-07-28T03:47:08.761Z,8.20
2023-07-28T03:49:38.317Z,10.00
2023-07-28T03:52:07.919Z,8.95
2023-07-28T03:54:37.377Z,10.25
2023-07-28T03:57:06.838Z,10.52
2023-07-28T03:59:36.236Z,11.45
2023-07-28T04:02:05.782Z,9.55
2023-07-28T04:04:35.250Z,10.00
2023-07-28T04:07:05.179Z,10.25
2023-07-28T04:09:34.581Z,11.57
2023-07-28T04:12:04.075Z,14.10
2023-07-28T04:14:33.665Z,11.40
2023-07-28T04:17:03.132Z,10.40
2023-07-28T04:19:33.044Z,12.77
2023-07-28T04:22:02.525Z,11.07
2023-07-28T04:24:33.628Z,12.30
2023-07-28T04:27:03.094Z,13.52
2023-07-28T04:29:36.149Z,11.43
2023-07-28T04:32:09.085Z,12.95
2023-07-28T04:34:39.125Z,23.77
2023-07-28T04:37:40.514Z,12.88
2023-07-28T04:40:10.350Z,13.75
2023-07-28T04:42:41.959Z,14.98
2023-07-28T04:45:12.029Z,13.55
2023-07-28T04:47:41.603Z,13.65
2023-07-28T04:50:12.768Z,12.77
2023-07-28T04:53:00.767Z,13.05
2023-07-28T04:55:56.230Z,12.45
2023-07-28T04:58:25.845Z,13.93
2023-07-28T05:00:56.870Z,14.13
2023-07-28T05:03:26.901Z,16.45
2023-07-28T05:06:01.293Z,12.18
2023-07-28T05:08:30.852Z,16.60
2023-07-28T05:11:00.796Z,16.90
2023-07-28T05:13:34.164Z,15.77
2023-07-28T05:16:03.877Z,13.13
2023-07-28T05:18:51.864Z,16.80
2023-07-28T05:21:50.104Z,14.27
2023-07-28T05:24:22.285Z,19.13
2023-07-28T05:26:51.767Z,17.02
2023-07-28T05:29:21.349Z,14.88
2023-07-28T05:31:51.553Z,15.45
2023-07-28T05:34:30.216Z,13.40
2023-07-28T05:36:59.885Z,17.75
2023-07-28T05:39:33.083Z,15.48
2023-07-28T05:42:02.716Z,15.77
2023-07-28T05:44:33.821Z,17.42
2023-07-28T05:47:03.462Z,17.42
2023-07-28T05:49:33.404Z,12.95
2023-07-28T05:52:02.973Z,14.25
2023-07-28T05:54:32.858Z,14.65
2023-07-28T05:57:02.307Z,13.18
2023-07-28T05:59:31.864Z,14.10
2023-07-28T06:02:01.316Z,14.27
2023-07-28T06:04:44.840Z,16.20
2023-07-28T06:07:14.507Z,12.65
2023-07-28T06:09:45.041Z,11.82
2023-07-28T06:12:14.609Z,12.00
2023-07-28T06:14:44.117Z,12.25
2023-07-28T06:17:14.842Z,13.15
2023-07-28T06:19:44.769Z,14.88
2023-07-28T06:22:14.242Z,14.23
2023-07-28T06:24:46.828Z,11.90
2023-07-28T06:27:16.550Z,13.23
2023-07-28T06:29:46.191Z,14.18
2023-07-28T06:32:15.691Z,16.48
2023-07-28T06:34:45.144Z,15.10
2023-07-28T06:37:14.627Z,15.80
2023-07-28T06:39:45.405Z,15.25
2023-07-28T06:42:15.410Z,20.77
2023-07-28T06:44:46.696Z,16.05
2023-07-28T06:47:16.317Z,17.95
2023-07-28T06:49:45.843Z,18.77
2023-07-28T06:52:15.338Z,16.52
2023-07-28T06:54:48.641Z,19.95
2023-07-28T06:57:18.101Z,18.58
2023-07-28T06:59:50.589Z,21.58
2023-07-28T07:02:20.512Z,19.98
2023-07-28T07:04:50.106Z,21.17
2023-07-28T07:07:19.775Z,24.38
2023-07-28T07:09:49.378Z,22.52
2023-07-28T07:12:18.798Z,21.20
2023-07-28T07:14:48.548Z,22.75
2023-07-28T07:17:18.047Z,22.77
2023-07-28T07:19:47.761Z,21.92
2023-07-28T07:22:17.346Z,23.85
2023-07-28T07:24:46.747Z,21.85
2023-07-28T07:27:16.177Z,24.83
2023-07-28T07:29:45.639Z,24.38
2023-07-28T07:32:17.396Z,26.20
2023-07-28T07:34:46.841Z,20.92
2023-07-28T07:37:16.350Z,24.58
2023-07-28T07:39:46.253Z,21.63
2023-07-28T07:42:16.144Z,26.27
2023-07-28T07:44:45.553Z,24.00
2023-07-28T07:47:18.649Z,23.63
2023-07-28T07:49:48.117Z,23.75
2023-07-28T07:52:17.580Z,25.02
2023-07-28T07:54:47.007Z,25.30
2023-07-28T07:57:16.587Z,23.13
2023-07-28T07:59:46.130Z,22.02
2023-07-28T08:02:16.008Z,18.58
2023-07-28T08:04:45.500Z,26.23
2023-07-28T08:07:17.268Z,20.38
2023-07-28T08:09:46.748Z,20.50
2023-07-28T08:12:16.638Z,19.02
2023-07-28T08:14:47.263Z,19.75
2023-07-28T08:17:16.722Z,16.85
2023-07-28T08:19:46.140Z,19.67
2023-07-28T08:22:15.804Z,16.90
2023-07-28T08:24:45.268Z,17.88
2023-07-28T08:27:14.788Z,16.23
2023-07-28T08:29:44.371Z,15.07
2023-07-28T08:32:13.947Z,17.23
2023-07-28T08:34:43.409Z,17.25
2023-07-28T08:37:12.884Z,18.30
2023-07-28T08:39:42.460Z,14.35
2023-07-28T08:42:11.933Z,13.55
2023-07-28T08:44:41.427Z,14.38
2023-07-28T08:47:11.035Z,12.65
2023-07-28T08:49:40.547Z,10.35
2023-07-28T08:52:10.161Z,15.27
2023-07-28T08:54:39.629Z,11.52
2023-07-28T08:57:09.452Z,13.65
2023-07-28T08:59:43.189Z,12.88
2023-07-28T09:02:13.455Z,10.82
2023-07-28T09:04:42.997Z,12.27
2023-07-28T09:07:12.542Z,11.25
2023-07-28T09:09:42.809Z,13.45
2023-07-28T09:12:12.538Z,11.85
2023-07-28T09:14:42.125Z,13.18
2023-07-28T09:17:15.249Z,11.95
2023-07-28T09:19:57.759Z,11.07
2023-07-28T09:22:27.954Z,12.13
2023-07-28T09:24:57.537Z,11.50
2023-07-28T09:27:30.390Z,10.07
2023-07-28T09:29:59.942Z,11.73
2023-07-28T09:32:34.561Z,10.68
2023-07-28T09:35:14.713Z,10.32
2023-07-28T09:37:48.679Z,9.75
2023-07-28T09:40:20.201Z,10.13
2023-07-28T09:42:54.196Z,10.13
2023-07-28T09:45:37.913Z,8.82
2023-07-28T09:48:09.735Z,10.85
2023-07-28T09:50:40.568Z,12.57
2023-07-28T09:53:12.204Z,8.85
2023-07-28T09:55:44.122Z,10.30
2023-07-28T09:58:14.382Z,8.45
2023-07-28T10:00:44.333Z,9.27
2023-07-28T10:03:15.035Z,9.30
2023-07-28T10:05:44.811Z,8.50
2023-07-28T10:08:14.485Z,9.15
2023-07-28T10:10:44.510Z,9.43
2023-07-28T10:13:23.308Z,9.40
2023-07-28T10:15:53.664Z,7.35
2023-07-28T10:18:26.302Z,8.70
2023-07-28T10:20:55.810Z,8.45
2023-07-28T10:23:26.156Z,9.00
2023-07-28T10:26:03.171Z,7.85
2023-07-28T10:28:34.391Z,8.05
2023-07-28T10:31:04.531Z,8.05
2023-07-28T10:33:44.340Z,7.25
2023-07-28T10:36:22.985Z,8.43
2023-07-28T10:39:04.685Z,8.27
2023-07-28T10:41:34.613Z,11.70
2023-07-28T10:44:04.226Z,10.15
2023-07-28T10:46:34.330Z,10.25
2023-07-28T10:49:10.190Z,7.47
2023-07-28T10:51:39.785Z,7.78
2023-07-28T10:54:09.239Z,9.10
2023-07-28T10:56:38.974Z,9.20
2023-07-28T10:59:08.695Z,8.10
2023-07-28T11:01:39.419Z,6.68
2023-07-28T11:04:24.520Z,7.50
2023-07-28T11:06:54.200Z,6.75
2023-07-28T11:09:26.066Z,5.70
2023-07-28T11:11:55.660Z,5.70
2023-07-28T11:14:25.160Z,6.65
2023-07-28T11:16:54.792Z,6.15
2023-07-28T11:19:26.829Z,5.20
2023-07-28T11:21:56.957Z,9.52
2023-07-28T11:24:27.399Z,5.68
2023-07-28T11:26:57.005Z,6.95
2023-07-28T11:29:28.233Z,6.47
2023-07-28T11:31:57.778Z,4.50
2023-07-28T11:34:27.275Z,5.05
2023-07-28T11:36:57.199Z,7.75
2023-07-28T11:39:28.168Z,5.07
2023-07-28T11:41:57.812Z,4.55
2023-07-28T11:44:28.062Z,5.53
2023-07-28T11:46:57.519Z,4.40
2023-07-28T11:49:27.002Z,3.03
2023-07-28T11:52:00.353Z,2.88
2023-07-28T11:54:30.480Z,3.42
2023-07-28T11:57:00.919Z,3.08
2023-07-28T11:59:30.899Z,3.05
2023-07-28T12:07:10.237Z,1.98
2023-07-28T12:10:02.866Z,2.80
2023-07-28T12:20:40.253Z,2.92
2023-07-28T12:25:43.595Z,2.28
2023-07-28T12:30:46.530Z,1.77
2023-07-28T12:35:49.738Z,1.83
2023-07-28T12:48:31.788Z,1.13
2023-07-28T12:51:04.633Z,1.23
2023-07-28T12:53:34.399Z,1.27
2023-07-28T12:56:04.173Z,1.75
2023-07-28T13:01:07.319Z,1.00
2023-07-28T13:03:37.096Z,1.52
2023-07-28T13:06:06.714Z,2.92
2023-07-28T13:13:41.406Z,1.55
2023-07-28T13:16:12.680Z,1.73
2023-07-28T13:21:12.304Z,1.92
2023-07-28T13:23:42.284Z,1.58
2023-07-28T13:26:11.970Z,1.95
2023-07-28T13:28:44.561Z,1.95
2023-07-28T13:31:14.420Z,2.45
2023-07-28T13:33:44.009Z,2.67
2023-07-28T13:36:13.566Z,1.67
2023-07-28T13:38:43.143Z,2.30
2023-07-28T13:41:12.608Z,3.10
2023-07-28T13:43:42.174Z,1.50
2023-07-28T13:46:13.053Z,1.55
2023-07-28T13:48:52.849Z,1.37
2023-07-28T13:51:30.884Z,0.98
2023-07-28T13:59:18.561Z,1.58
2023-07-28T14:01:48.511Z,2.08
2023-07-28T14:04:18.245Z,1.52
2023-07-28T14:06:47.725Z,1.77
2023-07-28T14:09:17.335Z,1.30
2023-07-28T14:11:46.825Z,1.17
2023-07-28T14:14:16.291Z,0.82
2023-07-28T14:16:46.619Z,2.42
2023-07-28T14:19:16.054Z,1.35
2023-07-28T14:21:45.490Z,1.55
2023-07-28T14:24:14.991Z,1.83
2023-07-28T14:26:44.436Z,2.10
2023-07-28T14:29:14.002Z,2.30
2023-07-28T14:31:44.356Z,2.55
2023-07-28T14:34:13.815Z,1.42
2023-07-28T14:36:43.410Z,2.90
2023-07-28T14:39:13.128Z,1.90
2023-07-28T14:41:42.613Z,2.13
2023-07-28T14:44:12.078Z,1.77
2023-07-28T14:46:41.541Z,2.17
2023-07-28T14:49:11.019Z,0.95
2023-07-28T14:51:40.437Z,1.55
2023-07-28T14:54:09.966Z,1.00
2023-07-28T14:56:39.443Z,2.28
2023-07-28T14:59:08.896Z,1.15
2023-07-28T15:01:38.528Z,2.03
2023-07-28T15:04:08.231Z,1.50
2023-07-28T15:06:37.691Z,2.45
2023-07-28T15:09:07.490Z,1.10
2023-07-28T15:11:37.108Z,1.95
2023-07-28T15:14:08.270Z,0.75
2023-07-28T15:16:37.809Z,2.10
2023-07-28T15:19:07.248Z,1.02
2023-07-28T15:21:37.458Z,1.13
2023-07-28T15:24:07.107Z,1.25
2023-07-28T15:26:37.073Z,0.90
2023-07-28T15:29:06.570Z,2.28
2023-07-28T15:31:36.220Z,3.92
2023-07-28T15:34:05.887Z,1.83
2023-07-28T15:36:35.322Z,3.85
2023-07-28T15:39:05.000Z,1.02
2023-07-28T15:41:34.714Z,2.97
2023-07-28T15:44:04.429Z,0.90
2023-07-28T15:46:34.002Z,1.27
2023-07-28T15:49:03.660Z,1.25
2023-07-28T15:51:33.208Z,2.30
2023-07-28T15:54:03.801Z,2.28
2023-07-28T15:56:33.262Z,1.38
2023-07-28T15:59:03.281Z,1.65
2023-07-28T16:01:35.670Z,2.25
2023-07-28T16:04:05.474Z,2.40
2023-07-28T16:06:35.057Z,4.07
2023-07-28T16:09:15.195Z,1.23
2023-07-28T16:11:46.397Z,2.92
2023-07-28T16:14:16.037Z,2.63
2023-07-28T16:16:45.473Z,2.95
2023-07-28T16:19:14.864Z,1.65
2023-07-28T16:21:44.316Z,4.18
2023-07-28T16:24:14.362Z,1.60
2023-07-28T16:26:43.784Z,1.33
2023-07-28T16:29:13.245Z,3.53
2023-07-28T16:31:42.916Z,1.30
2023-07-28T16:34:12.404Z,2.22
2023-07-28T16:36:41.879Z,1.30
2023-07-28T16:39:11.325Z,4.63
2023-07-28T16:41:40.757Z,2.15
2023-07-28T16:44:10.213Z,1.42
2023-07-28T16:46:40.175Z,1.25
2023-07-28T16:49:09.619Z,2.47
2023-07-28T16:51:40.306Z,1.65
2023-07-28T16:54:09.717Z,1.35
2023-07-28T16:56:40.841Z,1.35
2023-07-28T16:59:10.412Z,1.97
2023-07-28T17:01:40.099Z,4.38
2023-07-28T17:04:09.726Z,1.98
2023-07-28T17:06:39.227Z,2.90
2023-07-28T17:09:09.083Z,1.35
2023-07-28T17:11:38.664Z,2.28
2023-07-28T17:14:08.253Z,2.35
2023-07-28T17:16:37.787Z,2.35
2023-07-28T17:19:07.234Z,1.02
2023-07-28T17:21:36.909Z,2.40
2023-07-28T17:24:06.694Z,1.13
2023-07-28T17:26:36.096Z,0.98
2023-07-28T17:29:05.629Z,3.75
2023-07-28T17:31:35.301Z,1.75
2023-07-28T17:34:05.299Z,2.70
2023-07-28T17:36:34.761Z,1.80
2023-07-28T17:39:04.243Z,2.45
2023-07-28T17:41:34.038Z,2.03
2023-07-28T17:44:03.834Z,1.42
2023-07-28T17:46:33.402Z,6.18
2023-07-28T17:49:02.864Z,1.15
2023-07-28T17:51:33.005Z,2.28
2023-07-28T17:54:02.556Z,5.18
2023-07-28T17:56:32.034Z,2.22
2023-07-28T17:59:01.560Z,2.15
2023-07-28T18:01:31.084Z,2.33
2023-07-28T18:04:00.601Z,2.20
2023-07-28T18:06:30.237Z,2.10
2023-07-28T18:08:59.680Z,3.55
2023-07-28T18:11:29.152Z,1.52
2023-07-28T18:13:58.605Z,2.17
2023-07-28T18:16:28.973Z,1.60
2023-07-28T18:18:58.407Z,2.50
2023-07-28T18:21:27.836Z,1.75
2023-07-28T18:23:57.328Z,1.88
2023-07-28T18:26:26.890Z,2.30
2023-07-28T18:28:56.299Z,2.95
2023-07-28T18:31:25.736Z,3.15
2023-07-28T18:33:55.222Z,2.78
2023-07-28T18:36:24.763Z,1.77
2023-07-28T18:38:54.233Z,3.78
2023-07-28T18:41:23.656Z,1.77
2023-07-28T18:43:53.113Z,7.30
2023-07-28T18:46:22.575Z,1.55
2023-07-28T18:48:52.149Z,2.75
2023-07-28T18:51:21.558Z,1.50
2023-07-28T18:53:52.254Z,4.60
2023-07-28T18:56:21.710Z,2.65
2023-07-28T18:58:51.136Z,4.32
2023-07-28T19:01:20.819Z,2.40
2023-07-28T19:03:50.391Z,2.63
2023-07-28T19:06:21.333Z,3.63
2023-07-28T19:08:54.344Z,3.15
2023-07-28T19:11:23.916Z,2.35
2023-07-28T19:13:53.331Z,3.25
2023-07-28T19:16:22.946Z,3.25
2023-07-28T19:18:54.224Z,2.67
2023-07-28T19:21:23.704Z,2.63
2023-07-28T19:23:53.132Z,1.90
2023-07-28T19:26:22.722Z,3.22
2023-07-28T19:28:52.340Z,2.65
2023-07-28T19:31:21.932Z,2.20
2023-07-28T19:33:51.424Z,2.05
2023-07-28T19:36:20.859Z,3.13
2023-07-28T19:38:50.425Z,3.83
2023-07-28T19:41:20.265Z,5.32
2023-07-28T19:43:50.196Z,1.40
2023-07-28T19:46:22.249Z,3.13
2023-07-28T19:48:53.978Z,4.65
2023-07-28T19:51:20.801Z,2.92
2023-07-28T19:53:51.511Z,2.67
2023-07-28T19:56:20.986Z,3.60
2023-07-28T19:58:50.484Z,5.43
2023-07-28T20:01:19.997Z,1.95
2023-07-28T20:03:49.600Z,3.15
2023-07-28T20:06:19.052Z,1.80
2023-07-28T20:08:49.279Z,3.78
2023-07-28T20:11:18.951Z,8.15
2023-07-28T20:13:48.478Z,6.13
2023-07-28T20:16:17.893Z,3.55
2023-07-28T20:18:48.751Z,3.30
2023-07-28T20:21:18.382Z,5.40
2023-07-28T20:23:47.807Z,4.05
2023-07-28T20:26:17.281Z,3.85
2023-07-28T20:28:47.289Z,5.88
2023-07-28T20:31:16.939Z,3.65
2023-07-28T20:33:46.432Z,5.22
2023-07-28T20:36:16.127Z,6.63
2023-07-28T20:38:45.750Z,4.78
2023-07-28T20:41:15.248Z,3.85
2023-07-28T20:43:44.966Z,3.63
2023-07-28T20:46:14.541Z,3.58
2023-07-28T20:48:44.137Z,5.70
2023-07-28T20:51:13.806Z,5.40
2023-07-28T20:53:43.290Z,5.78
2023-07-28T20:56:13.561Z,6.10
2023-07-28T20:58:43.928Z,4.05
2023-07-28T21:01:13.832Z,6.13
2023-07-28T21:03:43.588Z,6.18
2023-07-28T21:06:14.353Z,5.18
2023-07-28T21:08:43.849Z,4.68
2023-07-28T21:11:13.492Z,5.18
2023-07-28T21:13:43.229Z,4.55
2023-07-28T21:16:12.866Z,5.65
2023-07-28T21:18:42.540Z,5.40
2023-07-28T21:21:11.975Z,5.88
2023-07-28T21:23:41.677Z,8.05
2023-07-28T21:26:12.760Z,4.35
2023-07-28T21:28:42.304Z,3.65
2023-07-28T21:31:11.802Z,5.78
2023-07-28T21:33:41.829Z,5.38
2023-07-28T21:36:11.241Z,5.15
2023-07-28T21:38:41.049Z,11.52
2023-07-28T21:41:07.929Z,5.97
2023-07-28T21:43:37.337Z,9.32
2023-07-28T21:46:06.940Z,6.22
2023-07-28T21:48:36.350Z,6.63
2023-07-28T21:51:05.764Z,7.85
2023-07-28T21:53:35.190Z,5.18
2023-07-28T21:56:05.050Z,6.13
2023-07-28T21:58:34.495Z,6.03
2023-07-28T22:01:04.073Z,5.68
2023-07-28T22:03:33.612Z,5.70
2023-07-28T22:06:03.700Z,6.38
2023-07-28T22:08:33.199Z,3.40
2023-07-28T22:11:03.169Z,5.07
2023-07-28T22:13:32.641Z,6.95
2023-07-28T22:16:03.240Z,4.82
2023-07-28T22:18:32.695Z,5.53
2023-07-28T22:21:02.800Z,4.93
2023-07-28T22:23:32.224Z,4.50
2023-07-28T22:26:02.625Z,6.93
2023-07-28T22:28:32.093Z,10.25
2023-07-28T22:31:01.644Z,3.92
2023-07-28T22:33:31.148Z,5.25
2023-07-28T22:36:02.185Z,3.85
2023-07-28T22:38:31.638Z,3.78
2023-07-28T22:41:01.872Z,6.60
2023-07-28T22:43:31.334Z,5.50
2023-07-28T22:46:01.538Z,5.82
2023-07-28T22:48:31.132Z,3.42
2023-07-28T22:51:00.560Z,4.20
2023-07-28T22:53:31.049Z,7.45
2023-07-28T22:56:00.521Z,6.80
2023-07-28T22:58:29.970Z,5.38
2023-07-28T23:00:59.438Z,7.22
2023-07-28T23:03:28.945Z,4.90
2023-07-28T23:05:58.437Z,3.42
2023-07-28T23:08:28.265Z,3.85
2023-07-28T23:10:57.681Z,3.25
2023-07-28T23:13:27.138Z,3.13
2023-07-28T23:15:56.583Z,3.25
2023-07-28T23:18:26.013Z,2.72
2023-07-28T23:20:55.519Z,4.93
2023-07-28T23:23:24.971Z,4.32
2023-07-28T23:25:54.419Z,4.70
2023-07-28T23:28:23.892Z,3.78
2023-07-28T23:30:53.349Z,3.42
2023-07-28T23:33:22.819Z,3.80
2023-07-28T23:35:52.254Z,3.75
2023-07-28T23:38:21.688Z,3.75
2023-07-28T23:40:51.111Z,4.60
2023-07-28T23:43:20.515Z,3.03
2023-07-28T23:45:49.987Z,3.17
2023-07-28T23:48:19.484Z,4.00
2023-07-28T23:50:49.021Z,2.38
2023-07-28T23:53:18.431Z,4.68
2023-07-28T23:55:47.843Z,4.55
2023-07-28T23:58:23.485Z,4.88
